Address 0x910745c37276aad58a5f354f28209c2705062522 4

Overview

Balance:
3.724426179998951366 BNB
My Name Tag:
Not Available

Txn Hash
Block
From
To
Value [Txn Fee]
0xb1f98b3d5b3db0892ceceb51215883af9b6b49d19f4ffdfa5538d195615cbd05105685672021-07-13 22:50:2115 days 14 hrs ago0x910745c37276aad58a5f354f28209c2705062522OUT 0x9fc4f4a1f28da4f99bffcdf3677b837d9195981e0.0408007 BNB0.00120612
0x99dc4239d6c99dca3b4cf2cd26248dbd6578f8740c77923e947800563ce6708c105685472021-07-13 22:49:2115 days 14 hrs ago0x910745c37276aad58a5f354f28209c2705062522OUT 0x9fc4f4a1f28da4f99bffcdf3677b837d9195981e0.03 BNB0.00049459
0x9b36dd18813f14abeeb9dc8c9242fe1383e1bab663d9d62ee487dd76973108bc103884332021-07-07 16:08:2521 days 21 hrs ago0xaa25aa7a19f9c426e07dee59b12f944f4d9f1dd3 IN 0x910745c37276aad58a5f354f28209c27050625221 BNB0.000378
0x410f400ddd1c65990459ced2f4c1d171152d385d1a7e11c54a5524676987df27102761352021-07-03 17:03:3025 days 20 hrs ago0xaa25aa7a19f9c426e07dee59b12f944f4d9f1dd3 IN 0x910745c37276aad58a5f354f28209c27050625221 BNB0.000378
0x7095dd0569b8f2ff8f7d423b593e629fbb62023007299136c7af62146dcbd921102757702021-07-03 16:45:1525 days 20 hrs ago0x910745c37276aad58a5f354f28209c2705062522OUT 0x9fc4f4a1f28da4f99bffcdf3677b837d9195981e0.0377005 BNB0.00093992
0xf3375f2ec9c64366316da82843cf0b13a3d2e4d7b24756d8513dfaac4d61b152102755132021-07-03 16:32:2425 days 20 hrs ago0x910745c37276aad58a5f354f28209c2705062522OUT 0x1016dfbd6928f2c2a31449eeddda5959b61d202d0 BNB0.00025617
0xdfdb1848fbefbf5f14deb6b6cbfdba1e729fa530b5cc31a727f13adfcb68cce5102754452021-07-03 16:29:0025 days 20 hrs ago0x910745c37276aad58a5f354f28209c2705062522OUT 0x1016dfbd6928f2c2a31449eeddda5959b61d202d0 BNB0.00029817
0x91349574d5d41a642002d595d5369fb51bf9a616492d64d17de09d8e1e32ec0d102753992021-07-03 16:26:4225 days 20 hrs ago0x910745c37276aad58a5f354f28209c2705062522OUT 0x9fc4f4a1f28da4f99bffcdf3677b837d9195981e0.0312005 BNB0.00049579
0x5afe705db5a815e2feb7eaa2e63f9ec7314e8aee53758bc9751464f68fe27c57102703532021-07-03 12:14:2426 days 1 hr ago0x910745c37276aad58a5f354f28209c2705062522OUT 0x9fc4f4a1f28da4f99bffcdf3677b837d9195981e0.0312005 BNB0.00049579
0x1c5d8dcb64b5a5518ebc78efd6d7f7db3951a1e4b4d167204672e83c79344eb9102703372021-07-03 12:13:3626 days 1 hr ago0x910745c37276aad58a5f354f28209c2705062522OUT 0x9fc4f4a1f28da4f99bffcdf3677b837d9195981e0.0312005 BNB0.00049579
0x99c552d1250774300f2cf07dcaccf5db2142a341e219256c1aa1683febb40295102684662021-07-03 10:40:0326 days 2 hrs ago0x910745c37276aad58a5f354f28209c2705062522OUT 0x9fc4f4a1f28da4f99bffcdf3677b837d9195981e0.03 BNB0.0014587
0xddcb4d22489b135b4167fd001dfc0a0309d7a0a30206f6b3eacf9d48dda1d556102684612021-07-03 10:39:4826 days 2 hrs ago0x910745c37276aad58a5f354f28209c2705062522OUT 0x1016dfbd6928f2c2a31449eeddda5959b61d202d0 BNB0.00025617
0xe7935b30496e95332f14110fe5416e050e35f39dcbb4db41cb6cd4944f6f34a5102684312021-07-03 10:38:1826 days 2 hrs ago0x910745c37276aad58a5f354f28209c2705062522OUT 0x1016dfbd6928f2c2a31449eeddda5959b61d202d0 BNB0.00025617
0xccdfe34c5f6b855de5b4c360d14fd2b6b043ea28b2787496d9257eaaeada7881102679262021-07-03 10:13:0326 days 3 hrs ago0x910745c37276aad58a5f354f28209c2705062522OUT 0x1016dfbd6928f2c2a31449eeddda5959b61d202d0 BNB0.00025617
0x1284c3eea83a525145a5591fc5154b6cfeb746261dec49adb360f9d85c8241fe102679112021-07-03 10:12:1826 days 3 hrs ago0x910745c37276aad58a5f354f28209c2705062522OUT 0x1016dfbd6928f2c2a31449eeddda5959b61d202d0 BNB0.00044817
0x9905f90daa89c6795c220f96176cd6630ebee31ae91453605c88eef87daaf230102545742021-07-02 23:05:2726 days 14 hrs ago0x910745c37276aad58a5f354f28209c2705062522OUT 0x9fc4f4a1f28da4f99bffcdf3677b837d9195981e0.0312005 BNB0.00049579
0x4644d0b941ebb567672fc85e5ff01ddb871b066bc09c1cc2ae61ba88b6d86e91102542992021-07-02 22:51:4226 days 14 hrs ago0x910745c37276aad58a5f354f28209c2705062522OUT 0x9fc4f4a1f28da4f99bffcdf3677b837d9195981e0.0312005 BNB0.00049579
0x1b417befcf94873d12525302fcb911ce09422e1bb121186265859d065513c4ee102248352021-07-01 22:18:3027 days 14 hrs ago0x910745c37276aad58a5f354f28209c2705062522OUT 0x1016dfbd6928f2c2a31449eeddda5959b61d202d0 BNB0.00051841
0x5189d3e4d5d564a56d2b5f652933312137da52ea5a59dfed0e2afd8783ce1c90102247562021-07-01 22:14:3327 days 15 hrs ago0x910745c37276aad58a5f354f28209c2705062522OUT 0x9fc4f4a1f28da4f99bffcdf3677b837d9195981e0.0300005 BNB0.00040706
0xdf2ac00d9e262845cb7388defc73b56fd98d3f75b396998f380b55f4f135ca91102145052021-07-01 13:42:0027 days 23 hrs ago0x910745c37276aad58a5f354f28209c2705062522OUT 0x9fc4f4a1f28da4f99bffcdf3677b837d9195981e0 BNB0.00030547
0x89599c9af2e0761f869cac6448271ac2aadbc3588feebc0012b69131235a0879102144792021-07-01 13:40:4227 days 23 hrs ago0x910745c37276aad58a5f354f28209c2705062522OUT 0x9fc4f4a1f28da4f99bffcdf3677b837d9195981e0.0020005 BNB0.00040706
0xeb50fa091036d60a0d379d3970f8f5c729b517e9148d6762793b98ee3dc6deed102144152021-07-01 13:37:3027 days 23 hrs ago0x910745c37276aad58a5f354f28209c2705062522OUT 0x9fc4f4a1f28da4f99bffcdf3677b837d9195981e0.0000005 BNB0.00040706
0xec3916afc6c5aeffa416c8241ffc35aae611dc587b3b87736aee0abfc5747d9c102143842021-07-01 13:35:5727 days 23 hrs ago0x910745c37276aad58a5f354f28209c2705062522OUT Contract Creation0 BNB0.00786377
0xd3bde8406c0c1b0c6974d50210b12e213c3c1bb19cb86ec9ea79c69ef1ea72c4102143272021-07-01 13:33:0627 days 23 hrs ago0xaa25aa7a19f9c426e07dee59b12f944f4d9f1dd3 IN 0x910745c37276aad58a5f354f28209c27050625221 BNB0.000378
0x8f4d0c669282de6bbea45fdef3425d343bffd2baa18b2d9257a790a23969cc24102143222021-07-01 13:32:5127 days 23 hrs ago0x910745c37276aad58a5f354f28209c2705062522OUT 0x03a5b6ef5924ff8242bf4e8b1b4bca4138f5c2930.1 BNB0.00021041
[ Download CSV Export 
Latest 5 internal transactions
Parent Txn Hash Block From To Value
0x99dc4239d6c99dca3b4cf2cd26248dbd6578f8740c77923e947800563ce6708c105685472021-07-13 22:49:2115 days 14 hrs ago 0x9fc4f4a1f28da4f99bffcdf3677b837d9195981e0x910745c37276aad58a5f354f28209c2705062522100 wei
0x777dbede7aa8c8c3c069e975df793a62445a2523855934537b85c8ab1bb4718f103399382021-07-05 22:13:3923 days 15 hrs ago 0x9fc4f4a1f28da4f99bffcdf3677b837d9195981e0x910745c37276aad58a5f354f28209c2705062522100 wei
0x259200c12bb618477e957246e7d90de564ebf1ed318b622e2914b5542bc6b45d103384262021-07-05 20:58:0323 days 16 hrs ago 0x9fc4f4a1f28da4f99bffcdf3677b837d9195981e0x910745c37276aad58a5f354f28209c2705062522100 wei
0xdf2ac00d9e262845cb7388defc73b56fd98d3f75b396998f380b55f4f135ca91102145052021-07-01 13:42:0027 days 23 hrs ago 0x9fc4f4a1f28da4f99bffcdf3677b837d9195981e0x910745c37276aad58a5f354f28209c27050625220.002 BNB
0x4bd9833d3f8362061e07b524cfad7d5240856d3b27f58efd2d263f6c88c6c541102139412021-07-01 13:13:4828 days 3 mins ago 0xbd53610b4323143784fb549ce0aab01877c459320x910745c37276aad58a5f354f28209c27050625220 BNB
[ Download CSV Export 
Loading

Contract Name:
0 BNB

Compiler Version
0

Optimization Enabled:
0 BNB

Other Settings:
-NA-
Block Transaction Gas Used Reward
Age Block Fee Address BC Fee Address Voting Power Jailed Incoming
Block Uncle Number Difficulty Gas Used Reward
Loading